Time;durP1;ratioP1;P1;durP2;ratioP2;P2;SDS_P1;SDS_P2;PMS_P1;PMS_P2;Temp;Humidity;BMP_temperature;BMP_pressure;BME280_temperature;BME280_humidity;BME280_pressure;Samples;Min_cycle;Max_cycle;Signal;HPM_P1;HPM_P2
2022/01/15 00:01:29;;;;;;;15.43;14.70;;;19.90;53.70;;;;;;5053997;28;20448;-56
2022/01/15 00:03:56;;;;;;;16.23;15.33;;;19.80;54.00;;;;;;5054080;28;20901;-52
2022/01/15 00:06:24;;;;;;;16.20;15.40;;;19.70;54.10;;;;;;5054087;28;20452;-49
2022/01/15 00:08:51;;;;;;;16.50;15.80;;;19.70;54.40;;;;;;5042974;28;20825;-52
2022/01/15 00:11:18;;;;;;;16.07;15.37;;;19.70;54.60;;;;;;5033976;28;20485;-51
2022/01/15 00:13:52;;;;;;;16.00;15.30;;;19.60;54.70;;;;;;5033838;28;20872;-53
2022/01/15 00:16:29;;;;;;;14.67;14.07;;;19.60;54.80;;;;;;5036222;28;20447;-51
2022/01/15 00:19:05;;;;;;;15.00;14.30;;;19.50;54.90;;;;;;5014230;28;20520;-52
2022/01/15 00:21:33;;;;;;;16.50;15.67;;;19.50;55.10;;;;;;5013937;28;20450;-52
2022/01/15 00:24:00;;;;;;;15.77;15.00;;;19.40;55.20;;;;;;5014227;28;20450;-51
2022/01/15 00:26:27;;;;;;;16.10;15.40;;;19.40;55.30;;;;;;5022957;28;20444;-50
2022/01/15 00:28:53;;;;;;;15.57;14.93;;;19.40;55.50;;;;;;5053666;28;20468;-51
2022/01/15 00:31:21;;;;;;;16.10;15.40;;;19.40;55.60;;;;;;5053629;28;20511;-52
2022/01/15 00:33:48;;;;;;;15.13;14.50;;;19.40;55.60;;;;;;5053467;28;20455;-51
2022/01/15 00:36:15;;;;;;;16.07;15.17;;;19.30;55.70;;;;;;5053575;28;20444;-50
2022/01/15 00:38:44;;;;;;;16.97;16.27;;;19.30;55.80;;;;;;5044904;28;20531;-53
2022/01/15 00:41:11;;;;;;;16.10;15.30;;;19.30;55.80;;;;;;5033516;28;20433;-53
2022/01/15 00:43:37;;;;;;;14.67;14.13;;;19.30;55.90;;;;;;5033304;28;20938;-55
2022/01/15 00:46:04;;;;;;;17.03;16.13;;;19.20;55.90;;;;;;5033385;28;20441;-52
2022/01/15 00:48:31;;;;;;;16.53;15.70;;;19.20;56.00;;;;;;5033176;28;20438;-53
2022/01/15 00:50:58;;;;;;;15.83;15.20;;;19.20;55.90;;;;;;5042929;28;20476;-51
2022/01/15 00:53:24;;;;;;;15.60;14.90;;;19.20;56.00;;;;;;5052868;28;20455;-56
2022/01/15 00:55:52;;;;;;;15.30;14.70;;;19.10;56.10;;;;;;5053186;28;20521;-52
2022/01/15 00:58:19;;;;;;;15.93;15.13;;;19.10;56.30;;;;;;5053231;28;20860;-51
2022/01/15 01:00:46;;;;;;;13.87;13.30;;;19.10;56.30;;;;;;5053024;28;20433;-53
2022/01/15 01:03:12;;;;;;;14.60;13.90;;;19.00;56.40;;;;;;5041867;28;20811;-52
2022/01/15 01:05:39;;;;;;;14.50;14.00;;;19.00;56.50;;;;;;5033079;28;20453;-55
2022/01/15 01:08:06;;;;;;;15.90;15.30;;;19.00;56.60;;;;;;5032913;28;20449;-50
2022/01/15 01:10:51;;;;;;;14.50;13.90;;;18.90;56.70;;;;;;5034865;28;20975;-51
2022/01/15 01:22:41;;;;;;;14.70;14.10;;;18.90;57.30;;;;;;5034628;28;20999;-52
2022/01/15 01:24:51;;;;;;;14.77;14.27;;;18.80;57.40;;;;;;5052378;28;20527;-51
2022/01/15 01:27:23;;;;;;;14.77;14.17;;;18.80;57.50;;;;;;5052656;28;20448;-53
2022/01/15 01:30:08;;;;;;;13.90;13.40;;;18.70;57.60;;;;;;5052515;28;20456;-51
2022/01/15 01:32:44;;;;;;;15.57;14.87;;;18.70;57.70;;;;;;5050781;28;20488;-51
2022/01/15 01:35:15;;;;;;;14.33;13.73;;;18.70;57.80;;;;;;5052437;28;20807;-56
2022/01/15 01:37:49;;;;;;;14.40;13.80;;;18.70;57.90;;;;;;5052366;28;20460;-53
2022/01/15 01:40:19;;;;;;;15.10;14.50;;;18.70;58.00;;;;;;5052335;28;20499;-55
2022/01/15 01:42:56;;;;;;;14.67;14.00;;;18.60;58.00;;;;;;5051917;28;20445;-53
2022/01/15 01:45:24;;;;;;;13.97;13.40;;;18.60;58.00;;;;;;5045195;28;20453;-50
2022/01/15 01:47:51;;;;;;;15.20;14.50;;;18.60;58.10;;;;;;5032163;28;20482;-54
2022/01/15 01:50:21;;;;;;;13.90;13.40;;;18.60;58.30;;;;;;5064730;22;21031;-49
2022/01/15 01:52:50;;;;;;;15.10;14.50;;;18.50;58.50;;;;;;5044763;28;20479;-47
2022/01/15 01:55:18;;;;;;;14.87;14.27;;;18.50;58.70;;;;;;5052130;28;20475;-47
2022/01/15 01:57:46;;;;;;;14.10;13.50;;;18.50;58.80;;;;;;5051012;28;20455;-47
2022/01/15 02:00:15;;;;;;;14.57;14.07;;;18.50;59.00;;;;;;5039224;28;20464;-47
2022/01/15 02:02:43;;;;;;;15.37;14.77;;;18.40;59.50;;;;;;5031775;28;20457;-50
2022/01/15 02:05:11;;;;;;;13.77;13.27;;;18.50;59.20;;;;;;5031974;28;20499;-47
2022/01/15 02:07:38;;;;;;;14.67;14.07;;;18.50;59.20;;;;;;5031936;28;20523;-47
2022/01/15 02:10:08;;;;;;;15.23;14.60;;;18.40;59.20;;;;;;5018190;28;20501;-49
2022/01/15 02:12:34;;;;;;;15.23;14.60;;;18.40;59.40;;;;;;5011852;28;20489;-49
2022/01/15 02:15:06;;;;;;;14.40;13.90;;;18.30;59.50;;;;;;5012205;28;20450;-47
2022/01/15 02:17:32;;;;;;;15.03;14.40;;;18.30;59.60;;;;;;5012112;28;20461;-48
2022/01/15 02:20:24;;;;;;;15.67;14.97;;;18.30;59.70;;;;;;5025112;28;20465;-48
2022/01/15 02:25:44;;;;;;;14.10;13.60;;;18.20;60.10;;;;;;5031867;28;20420;-49
2022/01/15 02:28:12;;;;;;;14.30;13.70;;;18.20;60.50;;;;;;5031595;28;20449;-49
2022/01/15 02:30:38;;;;;;;14.40;13.80;;;18.20;60.90;;;;;;5013138;28;20470;-47
2022/01/15 02:33:06;;;;;;;14.30;13.80;;;18.20;61.10;;;;;;5012119;28;20481;-47
2022/01/15 02:35:35;;;;;;;14.67;14.07;;;18.10;61.10;;;;;;5011817;28;20951;-47
2022/01/15 02:38:03;;;;;;;16.40;15.40;;;18.10;61.40;;;;;;5011858;28;20825;-47
2022/01/15 02:40:32;;;;;;;14.13;13.63;;;18.00;61.40;;;;;;5013291;28;20508;-48
2022/01/15 02:43:03;;;;;;;14.47;13.87;;;18.10;61.60;;;;;;5031256;28;20449;-50
2022/01/15 02:45:32;;;;;;;15.10;14.50;;;18.10;61.70;;;;;;5031675;28;20836;-48
2022/01/15 02:48:01;;;;;;;14.40;13.90;;;18.10;61.90;;;;;;5031633;28;20456;-47
2022/01/15 02:50:28;;;;;;;14.33;13.77;;;18.10;62.20;;;;;;5031387;28;20514;-48
2022/01/15 02:52:56;;;;;;;14.97;14.20;;;18.00;62.40;;;;;;5028040;28;20990;-47
2022/01/15 02:55:23;;;;;;;14.10;13.60;;;18.00;62.50;;;;;;5011720;28;20454;-47
2022/01/15 02:57:50;;;;;;;14.90;14.30;;;18.00;62.70;;;;;;5011566;28;20947;-48
2022/01/15 03:00:17;;;;;;;13.57;13.17;;;18.00;62.80;;;;;;5011617;28;20474;-47
2022/01/15 03:02:44;;;;;;;13.93;13.40;;;17.90;62.80;;;;;;5015308;28;20445;-48
2022/01/15 03:05:11;;;;;;;14.80;14.20;;;18.00;63.10;;;;;;5022671;28;20973;-47
2022/01/15 03:07:38;;;;;;;14.10;13.50;;;17.90;63.10;;;;;;5035306;28;20455;-48
2022/01/15 03:10:08;;;;;;;13.60;13.10;;;17.90;63.30;;;;;;5035085;28;20465;-47
2022/01/15 03:12:35;;;;;;;14.27;13.77;;;17.80;63.50;;;;;;5035019;28;20484;-47
2022/01/15 03:15:04;;;;;;;14.80;14.27;;;17.80;63.80;;;;;;5035157;28;20452;-53
2022/01/15 03:17:31;;;;;;;14.10;13.60;;;17.80;63.90;;;;;;5024754;28;20459;-47
2022/01/15 03:19:57;;;;;;;14.27;13.67;;;17.80;64.10;;;;;;5015355;28;20465;-47
2022/01/15 03:22:24;;;;;;;13.80;13.30;;;17.80;64.30;;;;;;5015017;28;20873;-51
2022/01/15 03:24:51;;;;;;;14.83;14.27;;;17.80;64.50;;;;;;5015244;28;20452;-48
2022/01/15 03:27:21;;;;;;;14.57;14.07;;;17.80;64.60;;;;;;5015242;28;20935;-47
2022/01/15 03:29:48;;;;;;;14.30;13.80;;;17.80;64.70;;;;;;5024770;28;20477;-47
2022/01/15 03:32:14;;;;;;;14.07;13.57;;;17.70;64.70;;;;;;5034585;28;20492;-49
2022/01/15 03:34:41;;;;;;;15.00;14.43;;;17.70;65.00;;;;;;5034713;28;20445;-47
2022/01/15 03:37:08;;;;;;;14.20;13.60;;;17.70;65.20;;;;;;5020689;28;20453;-47
2022/01/15 03:39:35;;;;;;;14.10;13.60;;;17.70;65.50;;;;;;5014776;28;20989;-49
2022/01/15 03:42:02;;;;;;;14.67;14.13;;;17.60;65.70;;;;;;5014714;28;20500;-49
2022/01/15 03:44:30;;;;;;;14.30;13.80;;;17.60;66.00;;;;;;5014828;28;20500;-48
2022/01/15 03:46:57;;;;;;;13.10;12.70;;;17.60;66.00;;;;;;5026464;28;20445;-48
2022/01/15 03:49:24;;;;;;;14.13;13.63;;;17.60;66.40;;;;;;5034232;28;20511;-47
2022/01/15 03:51:50;;;;;;;13.83;13.43;;;17.60;66.60;;;;;;5034272;28;20472;-47
2022/01/15 03:54:17;;;;;;;13.30;12.80;;;17.60;66.90;;;;;;5034413;28;20444;-50
2022/01/15 03:56:43;;;;;;;13.23;12.83;;;17.70;67.10;;;;;;5034381;28;20441;-48
2022/01/15 03:59:10;;;;;;;13.40;12.93;;;17.60;67.30;;;;;;5022268;28;20461;-47
2022/01/15 04:01:38;;;;;;;14.13;13.53;;;17.60;68.00;;;;;;5014405;28;20453;-47
2022/01/15 04:04:05;;;;;;;13.87;13.40;;;17.60;68.50;;;;;;5014360;28;20449;-47
2022/01/15 04:06:31;;;;;;;13.37;12.87;;;17.60;68.80;;;;;;5014359;28;20454;-49
2022/01/15 04:08:59;;;;;;;14.27;13.77;;;17.50;69.00;;;;;;5015125;28;20470;-49
2022/01/15 04:11:26;;;;;;;14.53;14.00;;;17.60;69.20;;;;;;5033956;28;20456;-50
2022/01/15 04:13:52;;;;;;;14.03;13.53;;;17.60;69.40;;;;;;5032891;28;20482;-47
2022/01/15 04:16:19;;;;;;;14.00;13.60;;;17.50;69.20;;;;;;5034032;28;20845;-47
2022/01/15 04:18:47;;;;;;;13.53;13.03;;;17.50;69.60;;;;;;5033848;28;20791;-48
2022/01/15 04:21:14;;;;;;;13.50;13.00;;;17.50;69.90;;;;;;5014458;28;20453;-49
2022/01/15 04:23:41;;;;;;;13.70;13.20;;;17.40;70.10;;;;;;5014049;28;20860;-47
2022/01/15 04:26:08;;;;;;;14.10;13.60;;;17.50;70.50;;;;;;5013980;28;20831;-48
2022/01/15 04:28:35;;;;;;;14.00;13.50;;;17.40;70.50;;;;;;5014064;28;20449;-47
2022/01/15 04:31:06;;;;;;;13.80;13.40;;;17.40;70.80;;;;;;5015273;28;20469;-47
2022/01/15 04:33:34;;;;;;;14.13;13.33;;;17.40;71.10;;;;;;5033414;28;20484;-47
2022/01/15 04:36:02;;;;;;;14.07;13.67;;;17.40;71.10;;;;;;5033769;28;20868;-48
2022/01/15 04:38:31;;;;;;;14.23;13.70;;;17.40;71.20;;;;;;5033589;28;20449;-48
2022/01/15 04:40:58;;;;;;;14.57;14.00;;;17.30;71.40;;;;;;5018797;28;20473;-47
2022/01/15 04:43:24;;;;;;;13.77;13.27;;;17.30;71.80;;;;;;5013493;28;20449;-51
2022/01/15 04:45:51;;;;;;;13.67;13.17;;;17.40;72.00;;;;;;5013696;28;20461;-47
2022/01/15 04:48:18;;;;;;;13.43;13.03;;;17.40;72.10;;;;;;5013588;28;20923;-47
2022/01/15 04:50:45;;;;;;;13.43;13.03;;;17.40;72.20;;;;;;5025809;28;20473;-50
2022/01/15 04:53:13;;;;;;;13.53;13.10;;;17.40;72.30;;;;;;5033061;28;20477;-47
2022/01/15 04:55:40;;;;;;;14.53;14.00;;;17.40;72.30;;;;;;5033372;28;20818;-48
2022/01/15 04:58:07;;;;;;;13.87;13.37;;;17.40;72.50;;;;;;5033114;28;20445;-47
2022/01/15 05:00:34;;;;;;;13.83;13.33;;;17.30;72.60;;;;;;5033038;28;20476;-47
2022/01/15 05:03:02;;;;;;;14.10;13.60;;;17.30;72.80;;;;;;5015687;28;20438;-48
2022/01/15 05:05:29;;;;;;;14.20;13.70;;;17.30;73.10;;;;;;5013358;28;20449;-52
2022/01/15 05:07:56;;;;;;;14.30;13.80;;;17.30;73.10;;;;;;5013326;28;20456;-47
2022/01/15 05:10:27;;;;;;;14.40;13.90;;;17.30;73.30;;;;;;5013197;28;20470;-47
2022/01/15 05:12:56;;;;;;;14.40;13.90;;;17.30;73.30;;;;;;5012936;28;20537;-49
2022/01/15 05:15:23;;;;;;;14.60;14.10;;;17.30;73.50;;;;;;5030960;28;20460;-48
2022/01/15 05:17:51;;;;;;;14.10;13.60;;;17.30;73.70;;;;;;5032776;28;20445;-49
2022/01/15 05:20:20;;;;;;;14.07;13.67;;;17.30;73.90;;;;;;5033072;28;20491;-52
2022/01/15 05:22:47;;;;;;;14.57;14.07;;;17.30;73.90;;;;;;5032504;28;20515;-50
2022/01/15 05:25:16;;;;;;;13.47;13.07;;;17.30;74.00;;;;;;5030312;28;20456;-51
2022/01/15 05:27:46;;;;;;;14.17;13.67;;;17.30;74.20;;;;;;5013053;28;21037;-54
2022/01/15 05:30:13;;;;;;;14.30;13.90;;;17.30;74.20;;;;;;5013063;28;20793;-48
2022/01/15 05:32:41;;;;;;;14.33;13.83;;;17.30;74.30;;;;;;5012546;28;20521;-53
2022/01/15 05:35:09;;;;;;;13.93;13.43;;;17.30;74.20;;;;;;5012745;28;20457;-51
2022/01/15 05:37:35;;;;;;;13.80;13.40;;;17.30;74.30;;;;;;5017841;28;20454;-52
2022/01/15 05:40:02;;;;;;;14.10;13.60;;;17.30;74.40;;;;;;5032365;28;20822;-56
2022/01/15 05:42:29;;;;;;;14.27;13.77;;;17.30;74.60;;;;;;5032163;28;20452;-49
2022/01/15 05:44:57;;;;;;;14.10;13.60;;;17.20;74.60;;;;;;5032413;28;20456;-48
2022/01/15 05:47:23;;;;;;;14.27;13.77;;;17.30;74.90;;;;;;5014746;28;20453;-49
2022/01/15 05:49:51;;;;;;;14.00;13.50;;;17.20;74.70;;;;;;5012357;28;20470;-50
2022/01/15 05:52:17;;;;;;;14.33;13.83;;;17.50;76.20;;;;;;5012168;28;21021;-48
2022/01/15 05:54:44;;;;;;;14.13;13.63;;;18.00;75.60;;;;;;5012394;28;20473;-50
2022/01/15 05:57:11;;;;;;;14.13;13.63;;;18.50;73.10;;;;;;5027311;28;20457;-48
2022/01/15 05:59:37;;;;;;;14.17;13.67;;;18.90;70.50;;;;;;5032065;28;20468;-47
2022/01/15 06:02:06;;;;;;;14.60;14.10;;;19.10;68.50;;;;;;5031769;28;20448;-47
2022/01/15 06:04:32;;;;;;;14.80;14.30;;;19.30;66.70;;;;;;5032000;28;20449;-52
2022/01/15 06:06:59;;;;;;;14.60;14.10;;;19.40;65.40;;;;;;5032001;28;20472;-48
2022/01/15 06:09:25;;;;;;;14.70;14.20;;;19.50;64.40;;;;;;5016687;28;20564;-47
2022/01/15 06:11:55;;;;;;;14.97;14.40;;;19.60;63.20;;;;;;5012049;28;20539;-47
2022/01/15 06:14:22;;;;;;;14.90;14.40;;;19.70;62.30;;;;;;5012030;28;20482;-47
2022/01/15 06:16:48;;;;;;;15.03;14.53;;;19.70;61.50;;;;;;5012067;28;20453;-47
2022/01/15 06:19:16;;;;;;;14.60;14.10;;;19.80;61.00;;;;;;5012114;28;20850;-49
2022/01/15 06:21:43;;;;;;;14.13;13.63;;;19.80;60.40;;;;;;5028579;28;20453;-53
2022/01/15 06:24:09;;;;;;;15.50;14.90;;;19.90;60.00;;;;;;5031411;28;20445;-48
2022/01/15 06:26:36;;;;;;;14.50;14.00;;;19.90;59.60;;;;;;5031751;28;20460;-47
2022/01/15 06:29:03;;;;;;;17.93;16.97;;;19.90;59.30;;;;;;5031492;28;20473;-49
2022/01/15 06:31:31;;;;;;;16.97;16.27;;;20.70;56.40;;;;;;5031456;28;20528;-59
2022/01/15 06:33:57;;;;;;;20.10;18.80;;;20.40;52.60;;;;;;5012255;28;21072;-58
2022/01/15 06:36:25;;;;;;;16.90;16.00;;;20.90;51.70;;;;;;5011494;28;20944;-59
2022/01/15 06:38:52;;;;;;;18.63;17.70;;;20.60;51.10;;;;;;5011764;28;20450;-56
2022/01/15 06:41:19;;;;;;;18.07;17.10;;;20.30;49.20;;;;;;5011861;28;20449;-57
2022/01/15 06:43:46;;;;;;;18.83;17.83;;;20.60;50.50;;;;;;5011601;28;20441;-58
2022/01/15 06:46:13;;;;;;;22.23;20.77;;;20.90;48.80;;;;;;5031476;28;20481;-59
2022/01/15 06:48:40;;;;;;;22.77;21.27;;;20.60;46.30;;;;;;5031185;28;20855;-56
2022/01/15 06:51:06;;;;;;;22.70;21.20;;;19.00;43.20;;;;;;5031303;28;20456;-57
2022/01/15 06:53:34;;;;;;;22.97;21.50;;;17.80;44.40;;;;;;5031131;28;20488;-59
2022/01/15 06:56:01;;;;;;;23.53;21.90;;;17.00;47.10;;;;;;5030102;28;20448;-59
2022/01/15 06:58:28;;;;;;;22.10;20.70;;;16.50;48.20;;;;;;5011616;28;20442;-60
2022/01/15 07:00:54;;;;;;;23.47;21.87;;;16.10;50.20;;;;;;5011554;28;20470;-58
2022/01/15 07:03:21;;;;;;;20.60;19.20;;;15.60;50.70;;;;;;5011333;28;20943;-59
2022/01/15 07:05:48;;;;;;;22.27;20.80;;;15.80;53.60;;;;;;5011624;28;20812;-57
2022/01/15 07:08:14;;;;;;;25.67;23.80;;;15.70;53.00;;;;;;5012543;28;20807;-57
2022/01/15 07:10:43;;;;;;;20.50;19.30;;;15.40;52.20;;;;;;5031189;28;20878;-58
2022/01/15 07:13:10;;;;;;;20.50;19.20;;;15.70;55.10;;;;;;5030800;28;21013;-57
2022/01/15 07:15:37;;;;;;;21.57;20.00;;;15.40;53.60;;;;;;5031124;28;20931;-58
2022/01/15 07:18:04;;;;;;;21.27;19.77;;;14.80;54.00;;;;;;5031162;28;20452;-58
2022/01/15 07:20:31;;;;;;;19.70;18.50;;;15.00;56.00;;;;;;5026874;28;20466;-59
2022/01/15 07:22:59;;;;;;;21.77;20.00;;;14.60;55.20;;;;;;5011205;28;20449;-55
2022/01/15 07:25:26;;;;;;;20.67;19.20;;;14.10;55.20;;;;;;5011334;28;20516;-59
2022/01/15 07:27:54;;;;;;;17.50;16.13;;;14.00;57.30;;;;;;5011352;28;20453;-58
2022/01/15 07:30:21;;;;;;;17.33;16.13;;;13.90;58.00;;;;;;5011306;28;20497;-59
2022/01/15 07:32:48;;;;;;;17.47;16.33;;;13.80;58.00;;;;;;5016285;28;21001;-57
2022/01/15 07:35:15;;;;;;;18.83;17.23;;;13.90;58.60;;;;;;5030958;28;20456;-59
2022/01/15 07:37:42;;;;;;;19.30;17.90;;;13.60;57.90;;;;;;5031040;28;20457;-59
2022/01/15 07:40:10;;;;;;;18.87;17.17;;;13.90;61.20;;;;;;5030851;28;20472;-58
2022/01/15 07:42:39;;;;;;;17.00;15.80;;;13.90;63.40;;;;;;5030771;28;20488;-57
2022/01/15 07:45:09;;;;;;;18.43;17.20;;;14.20;61.10;;;;;;5022142;28;20812;-56
2022/01/15 07:47:36;;;;;;;18.37;16.97;;;13.90;59.40;;;;;;5011535;28;20453;-59
2022/01/15 07:50:03;;;;;;;17.30;16.00;;;13.60;59.70;;;;;;5015081;28;20952;-58
2022/01/15 07:52:30;;;;;;;12.43;11.93;;;14.00;62.80;;;;;;5010020;28;20454;-51
2022/01/15 07:54:58;;;;;;;13.90;13.10;;;15.10;74.40;;;;;;5012368;28;20487;-54
2022/01/15 07:57:25;;;;;;;13.17;12.57;;;16.20;71.60;;;;;;5020769;28;20591;-55
2022/01/15 07:59:51;;;;;;;12.47;11.90;;;16.60;69.50;;;;;;5022364;28;20476;-52
2022/01/15 08:02:20;;;;;;;12.47;11.90;;;16.90;68.00;;;;;;5021597;28;21079;-51
2022/01/15 08:04:46;;;;;;;12.80;12.30;;;17.00;67.00;;;;;;5022191;28;20817;-55
2022/01/15 08:07:13;;;;;;;12.87;12.27;;;17.10;66.20;;;;;;5022163;28;20472;-56
2022/01/15 08:09:40;;;;;;;12.93;12.43;;;17.20;66.00;;;;;;5022155;28;20465;-54
2022/01/15 08:12:07;;;;;;;12.60;12.00;;;17.40;65.70;;;;;;5004862;28;20449;-53
2022/01/15 08:14:34;;;;;;;13.03;12.53;;;17.60;65.80;;;;;;5002252;28;20544;-51
2022/01/15 08:17:00;;;;;;;12.90;12.40;;;17.60;65.00;;;;;;5002491;28;20453;-49
2022/01/15 08:19:29;;;;;;;12.80;12.40;;;17.70;65.00;;;;;;5002147;28;20474;-50
2022/01/15 08:21:55;;;;;;;13.60;12.90;;;17.80;64.80;;;;;;5002333;28;20891;-55
2022/01/15 08:24:22;;;;;;;13.30;12.80;;;17.90;65.40;;;;;;5020380;28;20449;-61
2022/01/15 08:26:51;;;;;;;12.60;12.20;;;18.00;65.00;;;;;;5021843;28;20449;-51
2022/01/15 08:29:18;;;;;;;11.63;11.23;;;17.90;65.00;;;;;;5021687;28;21103;-46
2022/01/15 08:31:45;;;;;;;12.20;11.70;;;18.00;65.30;;;;;;5021527;28;20449;-47
2022/01/15 08:34:11;;;;;;;12.00;11.50;;;17.90;65.30;;;;;;5019994;28;20489;-49
2022/01/15 08:36:39;;;;;;;11.57;11.17;;;18.00;65.60;;;;;;5002209;28;20485;-47
2022/01/15 08:39:08;;;;;;;12.10;11.60;;;18.10;66.00;;;;;;5002107;28;20813;-46
2022/01/15 08:41:34;;;;;;;12.37;11.87;;;18.10;66.20;;;;;;5001856;28;20882;-45
2022/01/15 08:44:01;;;;;;;12.10;11.70;;;18.00;66.10;;;;;;5001870;28;21007;-45
2022/01/15 08:46:28;;;;;;;11.50;11.10;;;18.10;66.60;;;;;;5007453;28;20909;-50
2022/01/15 08:48:54;;;;;;;11.60;11.20;;;18.10;66.60;;;;;;5021418;28;20718;-46
2022/01/15 08:51:21;;;;;;;10.57;10.07;;;18.10;67.00;;;;;;5020705;28;20914;-46
2022/01/15 08:53:49;;;;;;;13.10;12.60;;;18.10;66.40;;;;;;5018919;28;20230;-44
2022/01/15 08:56:17;;;;;;;11.67;11.33;;;18.20;66.40;;;;;;5020499;28;20445;-46
2022/01/15 08:58:43;;;;;;;12.70;12.20;;;18.30;66.40;;;;;;5010759;28;20876;-44
2022/01/15 09:01:13;;;;;;;11.87;11.47;;;18.30;66.10;;;;;;5000138;28;20967;-47
2022/01/15 09:03:40;;;;;;;11.60;11.20;;;18.40;65.90;;;;;;5019963;28;20456;-48
2022/01/15 09:06:07;;;;;;;11.47;11.07;;;18.30;66.10;;;;;;5019866;28;20457;-49
2022/01/15 09:08:34;;;;;;;12.40;11.93;;;18.40;66.50;;;;;;5019867;28;20917;-47
2022/01/15 09:11:02;;;;;;;12.10;11.50;;;18.30;66.00;;;;;;5019868;28;20953;-46
2022/01/15 09:13:29;;;;;;;11.90;11.33;;;18.30;65.80;;;;;;5002406;28;20501;-46
2022/01/15 09:15:57;;;;;;;13.57;12.70;;;18.30;65.30;;;;;;5000148;28;20453;-46
2022/01/15 09:18:24;;;;;;;14.73;13.77;;;18.40;72.30;;;;;;5001375;28;20460;-48
2022/01/15 09:20:50;;;;;;;19.33;14.63;;;18.40;84.70;;;;;;5001456;28;20469;-50
2022/01/15 09:23:17;;;;;;;13.20;12.50;;;18.40;93.90;;;;;;5013016;28;20456;-47
2022/01/15 09:25:44;;;;;;;15.20;13.97;;;18.40;98.90;;;;;;5020866;28;20907;-49
2022/01/15 09:30:56;;;;;;;12.57;11.53;;;18.50;95.90;;;;;;5001166;28;20473;-46
2022/01/15 09:33:23;;;;;;;12.73;11.87;;;18.50;99.90;;;;;;5000856;28;20484;-50
2022/01/15 09:35:50;;;;;;;13.20;12.20;;;18.50;99.90;;;;;;5001129;28;20450;-46
2022/01/15 09:38:16;;;;;;;12.93;12.13;;;18.50;99.50;;;;;;5003544;28;20454;-46
2022/01/15 09:40:44;;;;;;;12.47;11.60;;;18.50;98.70;;;;;;5020338;28;20546;-46
2022/01/15 09:43:13;;;;;;;12.43;11.33;;;18.50;97.80;;;;;;5020315;28;20787;-50
2022/01/15 09:45:40;;;;;;;13.73;13.03;;;18.60;97.20;;;;;;5020728;28;20530;-45
2022/01/15 09:48:08;;;;;;;14.80;14.03;;;18.50;96.60;;;;;;5008400;28;20450;-46
2022/01/15 09:50:37;;;;;;;13.70;12.90;;;18.50;96.00;;;;;;5000637;28;20484;-48
2022/01/15 09:53:05;;;;;;;13.70;12.87;;;18.50;95.40;;;;;;5000534;28;20450;-49
2022/01/15 09:55:31;;;;;;;13.00;12.40;;;18.50;94.10;;;;;;5004455;28;20484;-47
2022/01/15 09:57:58;;;;;;;13.13;12.23;;;18.50;93.70;;;;;;5020065;28;20455;-46
2022/01/15 10:00:27;;;;;;;14.02;13.23;;;18.50;93.60;;;;;;5031420;28;20446;-49
2022/01/15 10:02:54;;;;;;;15.10;14.10;;;18.40;93.00;;;;;;5032829;28;20206;-49
2022/01/15 10:05:22;;;;;;;13.87;13.00;;;18.50;92.80;;;;;;5030266;28;20504;-47
2022/01/15 10:08:00;;;;;;;14.53;13.93;;;18.50;92.40;;;;;;5014071;28;20450;-47
2022/01/15 10:10:29;;;;;;;16.47;15.57;;;18.50;92.00;;;;;;4992609;28;20467;-47
2022/01/15 10:12:58;;;;;;;15.13;14.33;;;18.60;91.70;;;;;;4993600;28;20459;-49
2022/01/15 10:15:26;;;;;;;15.77;14.67;;;18.60;91.20;;;;;;4992904;28;20483;-47
2022/01/15 10:17:53;;;;;;;14.63;13.73;;;18.50;91.00;;;;;;5007488;28;20445;-51
2022/01/15 10:20:22;;;;;;;15.83;14.87;;;18.60;90.80;;;;;;5032162;28;20473;-47
2022/01/15 10:22:51;;;;;;;13.67;13.00;;;18.60;90.50;;;;;;5031623;28;20503;-45
2022/01/15 10:25:21;;;;;;;14.73;13.67;;;18.50;90.20;;;;;;5031784;28;20479;-47
2022/01/15 10:27:50;;;;;;;13.37;12.77;;;18.60;90.10;;;;;;5032676;28;20447;-49
2022/01/15 10:30:20;;;;;;;13.90;13.20;;;18.60;89.90;;;;;;5021889;28;20466;-46
2022/01/15 10:32:58;;;;;;;13.00;12.30;;;18.60;88.00;;;;;;5011912;28;20810;-46
2022/01/15 10:35:26;;;;;;;14.00;13.30;;;18.50;87.80;;;;;;5011942;28;20513;-46
2022/01/15 10:37:55;;;;;;;14.03;13.43;;;18.60;88.50;;;;;;5012039;28;20446;-48
2022/01/15 10:40:25;;;;;;;14.20;13.50;;;18.60;87.90;;;;;;5012018;28;20837;-48
2022/01/15 10:42:55;;;;;;;13.60;12.90;;;18.60;87.60;;;;;;5028473;28;20488;-47
2022/01/15 10:45:22;;;;;;;12.90;12.23;;;18.60;87.00;;;;;;5031609;28;20449;-48
2022/01/15 10:47:52;;;;;;;13.10;12.50;;;18.60;86.80;;;;;;5031696;28;20483;-45
2022/01/15 10:50:23;;;;;;;13.53;12.83;;;18.60;86.30;;;;;;5031417;28;20473;-48
2022/01/15 10:52:51;;;;;;;13.30;12.83;;;18.60;85.50;;;;;;5030232;28;20805;-46
2022/01/15 10:55:19;;;;;;;12.60;12.10;;;18.60;86.10;;;;;;5011980;28;20482;-49
2022/01/15 10:57:53;;;;;;;12.10;11.60;;;18.50;85.20;;;;;;5011810;28;20496;-46
2022/01/15 11:00:22;;;;;;;12.50;12.10;;;18.50;85.20;;;;;;5011867;28;20847;-47
2022/01/15 11:02:50;;;;;;;13.13;12.33;;;18.50;84.50;;;;;;5025723;28;20453;-48
2022/01/15 11:05:34;;;;;;;12.33;11.73;;;18.60;84.30;;;;;;5031513;28;20444;-46
2022/01/15 11:08:07;;;;;;;12.33;11.83;;;18.60;83.70;;;;;;5031797;28;20476;-46
2022/01/15 11:10:45;;;;;;;11.60;11.20;;;18.60;83.30;;;;;;5031299;28;20500;-48
2022/01/15 11:13:14;;;;;;;11.73;11.23;;;18.60;82.70;;;;;;5013886;28;20457;-48
2022/01/15 11:15:42;;;;;;;11.87;11.30;;;18.60;82.80;;;;;;5011754;28;20497;-44
2022/01/15 11:18:15;;;;;;;11.10;10.60;;;18.60;82.80;;;;;;5014348;28;20496;-49
2022/01/15 11:20:47;;;;;;;11.53;11.10;;;18.50;82.60;;;;;;5021189;28;20512;-50
2022/01/15 11:23:14;;;;;;;11.60;11.20;;;18.50;81.70;;;;;;5013554;28;20442;-47
2022/01/15 11:25:41;;;;;;;11.90;11.50;;;18.30;81.40;;;;;;5016340;28;20449;-49
2022/01/15 11:28:09;;;;;;;11.60;11.10;;;18.30;81.30;;;;;;5018669;28;20887;-48
2022/01/15 11:30:36;;;;;;;11.83;11.33;;;18.40;80.60;;;;;;5034959;28;20830;-49
2022/01/15 11:33:06;;;;;;;12.40;11.90;;;18.30;80.30;;;;;;5033362;28;20449;-48
2022/01/15 11:35:41;;;;;;;12.80;12.33;;;18.30;80.10;;;;;;5022229;28;20504;-50
2022/01/15 11:38:09;;;;;;;10.90;10.50;;;18.30;79.70;;;;;;5023390;28;20937;-49
2022/01/15 11:40:39;;;;;;;11.30;10.80;;;18.30;79.20;;;;;;5024521;28;20473;-47
2022/01/15 11:43:40;;;;;;;10.70;10.40;;;18.30;78.80;;;;;;5024111;28;20540;-49
2022/01/15 11:46:23;;;;;;;11.40;10.90;;;18.30;78.40;;;;;;5014942;28;20456;-47
2022/01/15 11:48:50;;;;;;;11.77;11.37;;;18.30;78.10;;;;;;5014700;28;20448;-47
2022/01/15 11:51:28;;;;;;;11.83;11.50;;;18.30;77.70;;;;;;5015030;28;20449;-49
2022/01/15 11:54:00;;;;;;;12.60;12.00;;;18.20;77.10;;;;;;5016821;28;20454;-49
2022/01/15 11:56:28;;;;;;;11.57;11.07;;;18.30;77.00;;;;;;5015165;28;20457;-50
2022/01/15 11:58:57;;;;;;;11.70;11.20;;;18.30;76.50;;;;;;5014705;28;20457;-51
2022/01/15 12:01:41;;;;;;;9.73;9.43;;;18.30;76.10;;;;;;5014899;28;20449;-48
2022/01/15 12:04:29;;;;;;;9.80;9.50;;;18.40;75.70;;;;;;5014719;28;20446;-46
2022/01/15 12:07:20;;;;;;;10.80;10.50;;;18.30;75.00;;;;;;5011401;28;20462;-47
2022/01/15 12:09:49;;;;;;;10.07;9.77;;;18.30;74.80;;;;;;5023082;28;20507;-46
2022/01/15 12:12:45;;;;;;;10.90;10.50;;;18.40;74.20;;;;;;5032362;28;20445;-48
2022/01/15 12:15:17;;;;;;;11.00;10.60;;;18.50;73.40;;;;;;5025228;28;20488;-50
2022/01/15 12:17:46;;;;;;;11.43;11.03;;;18.50;72.60;;;;;;5020140;28;20454;-49
2022/01/15 12:20:34;;;;;;;10.90;10.50;;;18.60;72.00;;;;;;5014319;28;20466;-50
2022/01/15 12:23:02;;;;;;;10.80;10.40;;;18.70;71.30;;;;;;5013954;28;20460;-47
2022/01/15 12:25:32;;;;;;;10.50;10.17;;;18.70;70.60;;;;;;5023005;28;20446;-46
2022/01/15 12:28:03;;;;;;;9.93;9.63;;;18.70;70.00;;;;;;4999851;28;20456;-48
2022/01/15 12:30:31;;;;;;;10.93;10.53;;;18.70;69.70;;;;;;5033780;28;20471;-47
2022/01/15 12:33:01;;;;;;;10.80;10.30;;;18.60;73.60;;;;;;5033728;28;20453;-51
2022/01/15 12:35:29;;;;;;;10.97;10.57;;;18.50;77.30;;;;;;5033551;28;20954;-47
2022/01/15 12:37:59;;;;;;;11.00;10.60;;;18.50;77.70;;;;;;5033821;28;20461;-49
2022/01/15 12:40:35;;;;;;;10.77;10.27;;;18.60;77.80;;;;;;5027070;28;20476;-51
2022/01/15 12:43:04;;;;;;;10.70;10.23;;;18.60;79.10;;;;;;5025171;28;20461;-49
2022/01/15 12:45:32;;;;;;;10.20;9.80;;;18.40;80.10;;;;;;5014055;28;20806;-47
2022/01/15 12:47:59;;;;;;;11.03;10.73;;;18.50;80.90;;;;;;5013885;28;20446;-49
2022/01/15 12:50:27;;;;;;;10.17;9.87;;;18.50;81.00;;;;;;5028089;28;20483;-46